Historique des mesures à Cassis (13260), France
Quotidien Résumé Aout 22, 2017 Unités:  Métrique    US   Métrique/US
« Précédent (Jour)
Suivant (Jour) »
Quotidien Hebdomadaire Mensuel Annuel Période au choix
  Maximum: Minimum: Moyenne:
Température: TemperatureC °C 19.8 °C 23.3 °C
Point de rosée: DewpointC °C 8.9 °C 11.7 °C
Humidité: Humidity % 38 % 46 %
Vitesse du vent: 0 km/h 0 km/h 3.1 km/h
Rafales: 0 km/h - -
Vent:- - ESE
Pression: PressurehPa hPa 1012.4 hPa -
Précipitations: 0.0 mm    
Historical Graphs
 
 
Mesures pour : Aout 22, 2017
Heure Temperature Point de rosée Pression Vent Vitesse du vent Rafales Humidité Pluie (par heure) Conditions
TemperatureC °C DewpointC °C PressurehPa hPa Calm     Humidity % HourlyPrecipMM mm SoftwareType W/m2
00:11 21.9 °C 9.0 °C 1013.8 hPa North 2.3 km/h 3.4 km/h 44 % 0.0 mm open2300-1.11 W/m2
01:11 21.4 °C 8.9 °C 1013.4 hPa Calm     45 % 0.0 mm open2300-1.11 W/m2
02:11 20.9 °C 9.4 °C 1013.4 hPa Calm   1.8 km/h 48 % 0.0 mm open2300-1.11 W/m2
03:11 20.6 °C 9.8 °C 1013.4 hPa Calm     50 % 0.0 mm open2300-1.11 W/m2
04:11 20.4 °C 9.7 °C 1013.1 hPa Calm   1.8 km/h 50 % 0.0 mm open2300-1.11 W/m2
05:11 20.3 °C 10.1 °C 1013.4 hPa North 1.8 km/h 6.9 km/h 52 % 0.0 mm open2300-1.11 W/m2
06:11 20.2 °C 9.9 °C 1013.4 hPa NNE 2.9 km/h 4.2 km/h 52 % 0.0 mm open2300-1.11 W/m2
07:11 19.8 °C 9.7 °C 1014.1 hPa NNE 2.9 km/h 2.9 km/h 52 % 0.0 mm open2300-1.11 W/m2
08:11 22.9 °C 10.3 °C 1014.1 hPa Calm     45 % 0.0 mm open2300-1.11 W/m2
09:12 23.5 °C 10.2 °C 1014.1 hPa SE 4.7 km/h 5.1 km/h 43 % 0.0 mm open2300-1.11 W/m2
10:11 23.9 °C 11.2 °C 1014.8 hPa SW 13.2 km/h 13.2 km/h 45 % 0.0 mm open2300-1.11 W/m2
11:11 26.9 °C 12.9 °C 1015.1 hPa East 2.3 km/h 3.4 km/h 42 % 0.0 mm open2300-1.11 W/m2
12:11 28.4 °C 16.3 °C 1015.1 hPa South 7.6 km/h 17.9 km/h 48 % 0.0 mm open2300-1.11 W/m2
13:11 28.4 °C 18.2 °C 1014.8 hPa South 6.4 km/h 6.4 km/h 54 % 0.0 mm open2300-1.11 W/m2
14:11 28.4 °C 19.6 °C 1014.4 hPa East 4.2 km/h 4.7 km/h 59 % 0.0 mm open2300-1.11 W/m2
15:11 28.2 °C 19.1 °C 1014.4 hPa South 9.8 km/h 9.8 km/h 58 % 0.0 mm open2300-1.11 W/m2
16:11 27.9 °C 16.2 °C 1013.8 hPa SE 4.2 km/h 15 km/h 49 % 0.0 mm open2300-1.11 W/m2
17:11 28.2 °C 14.4 °C 1013.4 hPa East 6.4 km/h 6.4 km/h 43 % 0.0 mm open2300-1.11 W/m2
18:11 27.4 °C 11.8 °C 1012.8 hPa South 5.1 km/h 5.1 km/h 38 % 0.0 mm open2300-1.11 W/m2
19:11 26.9 °C 11.8 °C 1012.4 hPa Calm   5.6 km/h 39 % 0.0 mm open2300-1.11 W/m2
20:11 25.9 °C 12.0 °C 1012.8 hPa Calm     42 % 0.0 mm open2300-1.11 W/m2
21:11 24.2 °C 11.5 °C 1012.8 hPa Calm     45 % 0.0 mm open2300-1.11 W/m2
22:11 22.8 °C 10.8 °C 1012.8 hPa Calm   2.3 km/h 47 % 0.0 mm open2300-1.11 W/m2
23:11 21.9 °C 10.3 °C 1012.8 hPa NNE 3.4 km/h 4.2 km/h 48 % 0.0 mm open2300-1.11 W/m2
Observations météo à CASSIS
WU-History script by Weather Underground - 1 mb